sensor_id;sensor_type;location;lat;lon;timestamp;P1;durP1;ratioP1;P2;durP2;ratioP2
32485;SDS011;18935;52.236;21.134;2022-10-17T00:00:44;39.00;;;25.33;;
32485;SDS011;18935;52.236;21.134;2022-10-17T00:03:09;40.47;;;24.48;;
32485;SDS011;18935;52.236;21.134;2022-10-17T00:05:38;43.10;;;26.10;;
32485;SDS011;18935;52.236;21.134;2022-10-17T00:10:29;36.87;;;24.07;;
32485;SDS011;18935;52.236;21.134;2022-10-17T00:12:55;37.30;;;25.43;;
32485;SDS011;18935;52.236;21.134;2022-10-17T00:15:20;39.30;;;25.63;;
32485;SDS011;18935;52.236;21.134;2022-10-17T00:17:46;42.45;;;26.35;;
32485;SDS011;18935;52.236;21.134;2022-10-17T00:20:11;44.80;;;25.33;;
32485;SDS011;18935;52.236;21.134;2022-10-17T00:22:37;38.20;;;24.45;;
32485;SDS011;18935;52.236;21.134;2022-10-17T00:25:02;38.87;;;25.33;;
32485;SDS011;18935;52.236;21.134;2022-10-17T00:27:28;36.58;;;24.33;;
32485;SDS011;18935;52.236;21.134;2022-10-17T00:29:53;36.83;;;24.48;;
32485;SDS011;18935;52.236;21.134;2022-10-17T00:32:19;47.03;;;28.87;;
32485;SDS011;18935;52.236;21.134;2022-10-17T00:34:44;43.17;;;26.30;;
32485;SDS011;18935;52.236;21.134;2022-10-17T00:37:10;48.97;;;29.35;;
32485;SDS011;18935;52.236;21.134;2022-10-17T00:39:35;39.90;;;26.52;;
32485;SDS011;18935;52.236;21.134;2022-10-17T00:42:01;36.67;;;23.77;;
32485;SDS011;18935;52.236;21.134;2022-10-17T00:46:55;42.75;;;26.35;;
32485;SDS011;18935;52.236;21.134;2022-10-17T00:49:26;44.33;;;27.98;;
32485;SDS011;18935;52.236;21.134;2022-10-17T00:51:55;41.55;;;26.08;;
32485;SDS011;18935;52.236;21.134;2022-10-17T00:54:24;48.67;;;26.60;;
32485;SDS011;18935;52.236;21.134;2022-10-17T00:56:54;38.13;;;25.98;;
32485;SDS011;18935;52.236;21.134;2022-10-17T00:59:20;45.10;;;26.25;;
32485;SDS011;18935;52.236;21.134;2022-10-17T01:01:55;45.38;;;28.00;;
32485;SDS011;18935;52.236;21.134;2022-10-17T01:04:25;37.53;;;25.95;;
32485;SDS011;18935;52.236;21.134;2022-10-17T01:06:51;42.97;;;26.13;;
32485;SDS011;18935;52.236;21.134;2022-10-17T01:09:16;41.70;;;26.13;;
32485;SDS011;18935;52.236;21.134;2022-10-17T01:11:49;38.10;;;23.88;;
32485;SDS011;18935;52.236;21.134;2022-10-17T01:14:28;40.05;;;25.65;;
32485;SDS011;18935;52.236;21.134;2022-10-17T01:22:49;38.17;;;25.35;;
32485;SDS011;18935;52.236;21.134;2022-10-17T01:25:39;40.83;;;25.77;;
32485;SDS011;18935;52.236;21.134;2022-10-17T01:28:32;43.00;;;27.15;;
32485;SDS011;18935;52.236;21.134;2022-10-17T01:31:11;43.20;;;28.15;;
32485;SDS011;18935;52.236;21.134;2022-10-17T01:36:17;45.03;;;27.63;;
32485;SDS011;18935;52.236;21.134;2022-10-17T01:38:58;44.73;;;28.50;;
32485;SDS011;18935;52.236;21.134;2022-10-17T01:44:17;43.65;;;27.83;;
32485;SDS011;18935;52.236;21.134;2022-10-17T01:46:53;45.58;;;28.65;;
32485;SDS011;18935;52.236;21.134;2022-10-17T01:49:26;45.65;;;27.90;;
32485;SDS011;18935;52.236;21.134;2022-10-17T01:51:56;45.58;;;27.15;;
32485;SDS011;18935;52.236;21.134;2022-10-17T01:54:29;39.50;;;26.20;;
32485;SDS011;18935;52.236;21.134;2022-10-17T01:56:58;41.42;;;27.88;;
32485;SDS011;18935;52.236;21.134;2022-10-17T01:59:29;48.15;;;27.20;;
32485;SDS011;18935;52.236;21.134;2022-10-17T02:02:02;42.72;;;26.58;;
32485;SDS011;18935;52.236;21.134;2022-10-17T02:04:28;40.92;;;27.45;;
32485;SDS011;18935;52.236;21.134;2022-10-17T02:06:54;46.15;;;28.48;;
32485;SDS011;18935;52.236;21.134;2022-10-17T02:09:21;44.20;;;28.23;;
32485;SDS011;18935;52.236;21.134;2022-10-17T02:15:10;38.53;;;25.95;;
32485;SDS011;18935;52.236;21.134;2022-10-17T02:18:23;43.20;;;26.13;;
32485;SDS011;18935;52.236;21.134;2022-10-17T02:21:19;40.15;;;25.25;;
32485;SDS011;18935;52.236;21.134;2022-10-17T02:26:31;42.22;;;25.23;;
32485;SDS011;18935;52.236;21.134;2022-10-17T02:29:08;37.90;;;25.52;;
32485;SDS011;18935;52.236;21.134;2022-10-17T02:31:48;39.45;;;26.48;;
32485;SDS011;18935;52.236;21.134;2022-10-17T02:34:40;36.75;;;25.20;;
32485;SDS011;18935;52.236;21.134;2022-10-17T02:37:08;39.90;;;25.60;;
32485;SDS011;18935;52.236;21.134;2022-10-17T02:39:37;44.30;;;25.70;;
32485;SDS011;18935;52.236;21.134;2022-10-17T02:42:04;46.03;;;27.08;;
32485;SDS011;18935;52.236;21.134;2022-10-17T02:44:33;39.70;;;26.17;;
32485;SDS011;18935;52.236;21.134;2022-10-17T02:47:02;42.97;;;26.52;;
32485;SDS011;18935;52.236;21.134;2022-10-17T02:49:33;44.25;;;26.67;;
32485;SDS011;18935;52.236;21.134;2022-10-17T02:52:09;42.95;;;26.23;;
32485;SDS011;18935;52.236;21.134;2022-10-17T02:54:43;39.75;;;26.08;;
32485;SDS011;18935;52.236;21.134;2022-10-17T02:57:16;42.45;;;25.80;;
32485;SDS011;18935;52.236;21.134;2022-10-17T02:59:49;36.97;;;25.05;;
32485;SDS011;18935;52.236;21.134;2022-10-17T03:02:15;41.40;;;24.80;;
32485;SDS011;18935;52.236;21.134;2022-10-17T03:04:41;38.38;;;25.55;;
32485;SDS011;18935;52.236;21.134;2022-10-17T03:07:07;42.65;;;26.08;;
32485;SDS011;18935;52.236;21.134;2022-10-17T03:09:33;41.00;;;24.53;;
32485;SDS011;18935;52.236;21.134;2022-10-17T03:11:58;36.40;;;25.17;;
32485;SDS011;18935;52.236;21.134;2022-10-17T03:14:23;37.72;;;25.27;;
32485;SDS011;18935;52.236;21.134;2022-10-17T03:16:50;36.97;;;24.50;;
32485;SDS011;18935;52.236;21.134;2022-10-17T03:19:15;42.27;;;26.27;;
32485;SDS011;18935;52.236;21.134;2022-10-17T03:21:40;47.25;;;26.75;;
32485;SDS011;18935;52.236;21.134;2022-10-17T03:24:06;39.60;;;26.00;;
32485;SDS011;18935;52.236;21.134;2022-10-17T03:26:31;43.75;;;25.63;;
32485;SDS011;18935;52.236;21.134;2022-10-17T03:28:56;40.72;;;25.50;;
32485;SDS011;18935;52.236;21.134;2022-10-17T03:31:21;40.70;;;26.53;;
32485;SDS011;18935;52.236;21.134;2022-10-17T03:33:47;36.45;;;26.48;;
32485;SDS011;18935;52.236;21.134;2022-10-17T03:36:13;41.78;;;27.65;;
32485;SDS011;18935;52.236;21.134;2022-10-17T03:38:41;42.60;;;25.10;;
32485;SDS011;18935;52.236;21.134;2022-10-17T03:41:06;42.00;;;25.90;;
32485;SDS011;18935;52.236;21.134;2022-10-17T03:43:32;34.33;;;24.52;;
32485;SDS011;18935;52.236;21.134;2022-10-17T03:45:58;43.60;;;27.02;;
32485;SDS011;18935;52.236;21.134;2022-10-17T03:48:24;36.83;;;24.42;;
32485;SDS011;18935;52.236;21.134;2022-10-17T03:50:50;42.03;;;27.38;;
32485;SDS011;18935;52.236;21.134;2022-10-17T03:53:16;42.05;;;25.77;;
32485;SDS011;18935;52.236;21.134;2022-10-17T03:55:42;39.80;;;26.35;;
32485;SDS011;18935;52.236;21.134;2022-10-17T03:58:07;42.67;;;27.13;;
32485;SDS011;18935;52.236;21.134;2022-10-17T04:00:34;45.10;;;28.30;;
32485;SDS011;18935;52.236;21.134;2022-10-17T04:03:00;47.03;;;30.75;;
32485;SDS011;18935;52.236;21.134;2022-10-17T04:05:26;50.58;;;32.55;;
32485;SDS011;18935;52.236;21.134;2022-10-17T04:07:51;48.83;;;30.13;;
32485;SDS011;18935;52.236;21.134;2022-10-17T04:10:16;47.97;;;30.90;;
32485;SDS011;18935;52.236;21.134;2022-10-17T04:12:42;51.10;;;33.13;;
32485;SDS011;18935;52.236;21.134;2022-10-17T04:15:07;54.93;;;34.87;;
32485;SDS011;18935;52.236;21.134;2022-10-17T04:17:33;57.60;;;35.70;;
32485;SDS011;18935;52.236;21.134;2022-10-17T04:19:58;53.27;;;34.47;;
32485;SDS011;18935;52.236;21.134;2022-10-17T04:22:23;55.25;;;34.42;;
32485;SDS011;18935;52.236;21.134;2022-10-17T04:24:49;54.33;;;35.23;;
32485;SDS011;18935;52.236;21.134;2022-10-17T04:27:14;56.20;;;36.13;;
32485;SDS011;18935;52.236;21.134;2022-10-17T04:29:39;50.95;;;35.28;;
32485;SDS011;18935;52.236;21.134;2022-10-17T04:32:05;48.47;;;34.92;;
32485;SDS011;18935;52.236;21.134;2022-10-17T04:34:30;55.17;;;35.97;;
32485;SDS011;18935;52.236;21.134;2022-10-17T04:36:56;58.78;;;34.53;;
32485;SDS011;18935;52.236;21.134;2022-10-17T04:39:21;51.65;;;35.33;;
32485;SDS011;18935;52.236;21.134;2022-10-17T04:41:46;57.17;;;36.53;;
32485;SDS011;18935;52.236;21.134;2022-10-17T04:44:11;50.85;;;34.33;;
32485;SDS011;18935;52.236;21.134;2022-10-17T04:46:38;57.10;;;36.30;;
32485;SDS011;18935;52.236;21.134;2022-10-17T04:49:03;49.08;;;33.97;;
32485;SDS011;18935;52.236;21.134;2022-10-17T04:51:29;50.25;;;34.78;;
32485;SDS011;18935;52.236;21.134;2022-10-17T04:53:54;56.03;;;35.63;;
32485;SDS011;18935;52.236;21.134;2022-10-17T04:56:21;56.83;;;36.03;;
32485;SDS011;18935;52.236;21.134;2022-10-17T04:58:47;57.17;;;35.40;;
32485;SDS011;18935;52.236;21.134;2022-10-17T05:01:14;62.65;;;36.90;;
32485;SDS011;18935;52.236;21.134;2022-10-17T05:03:44;58.78;;;35.72;;
32485;SDS011;18935;52.236;21.134;2022-10-17T05:06:11;53.55;;;35.35;;
32485;SDS011;18935;52.236;21.134;2022-10-17T05:08:40;61.10;;;40.90;;
32485;SDS011;18935;52.236;21.134;2022-10-17T05:11:13;57.75;;;37.47;;
32485;SDS011;18935;52.236;21.134;2022-10-17T05:13:44;55.22;;;36.47;;
32485;SDS011;18935;52.236;21.134;2022-10-17T05:18:39;53.97;;;35.13;;
32485;SDS011;18935;52.236;21.134;2022-10-17T05:21:04;54.20;;;34.47;;
32485;SDS011;18935;52.236;21.134;2022-10-17T05:23:30;51.65;;;34.10;;
32485;SDS011;18935;52.236;21.134;2022-10-17T05:25:55;52.80;;;34.60;;
32485;SDS011;18935;52.236;21.134;2022-10-17T05:28:21;52.17;;;34.75;;
32485;SDS011;18935;52.236;21.134;2022-10-17T05:30:46;54.08;;;33.95;;
32485;SDS011;18935;52.236;21.134;2022-10-17T05:33:12;54.42;;;35.97;;
32485;SDS011;18935;52.236;21.134;2022-10-17T05:35:37;51.03;;;34.15;;
32485;SDS011;18935;52.236;21.134;2022-10-17T05:38:02;47.67;;;32.80;;
32485;SDS011;18935;52.236;21.134;2022-10-17T05:40:28;52.00;;;34.13;;
32485;SDS011;18935;52.236;21.134;2022-10-17T05:42:53;49.07;;;33.43;;
32485;SDS011;18935;52.236;21.134;2022-10-17T05:45:18;50.60;;;33.65;;
32485;SDS011;18935;52.236;21.134;2022-10-17T05:47:43;60.90;;;34.13;;
32485;SDS011;18935;52.236;21.134;2022-10-17T05:50:09;56.60;;;34.55;;
32485;SDS011;18935;52.236;21.134;2022-10-17T05:52:37;50.70;;;32.38;;
32485;SDS011;18935;52.236;21.134;2022-10-17T05:55:03;47.70;;;33.30;;
32485;SDS011;18935;52.236;21.134;2022-10-17T05:57:29;50.35;;;32.28;;
32485;SDS011;18935;52.236;21.134;2022-10-17T05:59:54;64.55;;;35.47;;
32485;SDS011;18935;52.236;21.134;2022-10-17T06:02:20;55.73;;;33.70;;
32485;SDS011;18935;52.236;21.134;2022-10-17T06:04:45;52.13;;;33.28;;
32485;SDS011;18935;52.236;21.134;2022-10-17T06:07:12;54.00;;;34.47;;
32485;SDS011;18935;52.236;21.134;2022-10-17T06:09:38;53.25;;;32.25;;
32485;SDS011;18935;52.236;21.134;2022-10-17T06:12:03;50.28;;;33.50;;
32485;SDS011;18935;52.236;21.134;2022-10-17T06:14:29;52.03;;;32.00;;
32485;SDS011;18935;52.236;21.134;2022-10-17T06:16:54;50.67;;;33.43;;
32485;SDS011;18935;52.236;21.134;2022-10-17T06:19:20;51.20;;;33.00;;
32485;SDS011;18935;52.236;21.134;2022-10-17T06:21:45;51.35;;;33.88;;
32485;SDS011;18935;52.236;21.134;2022-10-17T06:24:10;57.00;;;34.80;;
32485;SDS011;18935;52.236;21.134;2022-10-17T06:26:35;50.03;;;33.58;;
32485;SDS011;18935;52.236;21.134;2022-10-17T06:29:01;54.47;;;34.57;;
32485;SDS011;18935;52.236;21.134;2022-10-17T06:31:26;47.17;;;33.25;;
32485;SDS011;18935;52.236;21.134;2022-10-17T06:33:51;52.30;;;34.58;;
32485;SDS011;18935;52.236;21.134;2022-10-17T06:36:17;51.67;;;33.30;;
32485;SDS011;18935;52.236;21.134;2022-10-17T06:38:42;48.23;;;33.07;;
32485;SDS011;18935;52.236;21.134;2022-10-17T06:41:09;53.85;;;33.03;;
32485;SDS011;18935;52.236;21.134;2022-10-17T06:43:37;49.22;;;34.65;;
32485;SDS011;18935;52.236;21.134;2022-10-17T06:46:03;49.42;;;32.92;;
32485;SDS011;18935;52.236;21.134;2022-10-17T06:48:30;53.65;;;34.92;;
32485;SDS011;18935;52.236;21.134;2022-10-17T06:50:59;50.97;;;33.13;;
32485;SDS011;18935;52.236;21.134;2022-10-17T06:53:28;51.05;;;32.13;;
32485;SDS011;18935;52.236;21.134;2022-10-17T06:55:55;54.28;;;33.05;;
32485;SDS011;18935;52.236;21.134;2022-10-17T06:58:25;48.55;;;31.17;;
32485;SDS011;18935;52.236;21.134;2022-10-17T07:00:51;47.35;;;31.65;;
32485;SDS011;18935;52.236;21.134;2022-10-17T07:03:16;48.60;;;31.87;;
32485;SDS011;18935;52.236;21.134;2022-10-17T07:05:41;50.60;;;31.77;;
32485;SDS011;18935;52.236;21.134;2022-10-17T07:08:06;47.17;;;31.47;;
32485;SDS011;18935;52.236;21.134;2022-10-17T07:10:32;53.78;;;31.90;;
32485;SDS011;18935;52.236;21.134;2022-10-17T07:13:02;49.70;;;31.30;;
32485;SDS011;18935;52.236;21.134;2022-10-17T07:15:28;49.38;;;31.85;;
32485;SDS011;18935;52.236;21.134;2022-10-17T07:17:53;49.22;;;30.98;;
32485;SDS011;18935;52.236;21.134;2022-10-17T07:20:18;47.80;;;30.98;;
32485;SDS011;18935;52.236;21.134;2022-10-17T07:22:43;42.77;;;30.70;;
32485;SDS011;18935;52.236;21.134;2022-10-17T07:25:09;55.85;;;32.35;;
32485;SDS011;18935;52.236;21.134;2022-10-17T07:27:34;46.22;;;31.20;;
32485;SDS011;18935;52.236;21.134;2022-10-17T07:29:59;46.67;;;30.67;;
32485;SDS011;18935;52.236;21.134;2022-10-17T07:32:25;53.57;;;29.73;;
32485;SDS011;18935;52.236;21.134;2022-10-17T07:34:50;57.07;;;30.40;;
32485;SDS011;18935;52.236;21.134;2022-10-17T07:37:15;43.97;;;29.90;;
32485;SDS011;18935;52.236;21.134;2022-10-17T07:39:40;45.33;;;28.33;;
32485;SDS011;18935;52.236;21.134;2022-10-17T07:42:06;41.33;;;29.05;;
32485;SDS011;18935;52.236;21.134;2022-10-17T07:44:31;44.70;;;28.70;;
32485;SDS011;18935;52.236;21.134;2022-10-17T07:46:57;45.38;;;28.98;;
32485;SDS011;18935;52.236;21.134;2022-10-17T07:49:22;39.33;;;28.10;;
32485;SDS011;18935;52.236;21.134;2022-10-17T07:51:47;46.15;;;28.60;;
32485;SDS011;18935;52.236;21.134;2022-10-17T07:54:13;44.08;;;27.40;;
32485;SDS011;18935;52.236;21.134;2022-10-17T07:56:39;44.90;;;28.63;;
32485;SDS011;18935;52.236;21.134;2022-10-17T07:59:04;43.63;;;28.50;;
32485;SDS011;18935;52.236;21.134;2022-10-17T08:01:30;40.08;;;28.17;;
32485;SDS011;18935;52.236;21.134;2022-10-17T08:03:55;41.43;;;27.13;;
32485;SDS011;18935;52.236;21.134;2022-10-17T08:06:20;42.70;;;27.63;;
32485;SDS011;18935;52.236;21.134;2022-10-17T08:08:45;40.67;;;27.02;;
32485;SDS011;18935;52.236;21.134;2022-10-17T08:11:12;37.38;;;26.13;;
32485;SDS011;18935;52.236;21.134;2022-10-17T08:13:38;41.35;;;27.75;;
32485;SDS011;18935;52.236;21.134;2022-10-17T08:16:05;45.58;;;28.02;;
32485;SDS011;18935;52.236;21.134;2022-10-17T08:18:32;39.45;;;27.33;;
32485;SDS011;18935;52.236;21.134;2022-10-17T08:21:02;47.95;;;27.65;;
32485;SDS011;18935;52.236;21.134;2022-10-17T08:23:30;38.67;;;25.53;;
32485;SDS011;18935;52.236;21.134;2022-10-17T08:25:57;42.50;;;26.05;;
32485;SDS011;18935;52.236;21.134;2022-10-17T08:28:24;42.90;;;26.33;;
32485;SDS011;18935;52.236;21.134;2022-10-17T08:30:49;45.55;;;30.13;;
32485;SDS011;18935;52.236;21.134;2022-10-17T08:33:14;42.63;;;26.57;;
32485;SDS011;18935;52.236;21.134;2022-10-17T08:35:40;41.27;;;26.63;;
32485;SDS011;18935;52.236;21.134;2022-10-17T08:38:05;40.78;;;25.55;;
32485;SDS011;18935;52.236;21.134;2022-10-17T08:40:31;35.72;;;24.15;;
32485;SDS011;18935;52.236;21.134;2022-10-17T08:45:25;37.57;;;23.37;;
32485;SDS011;18935;52.236;21.134;2022-10-17T08:47:57;35.67;;;22.15;;
32485;SDS011;18935;52.236;21.134;2022-10-17T08:53:20;40.75;;;19.65;;
32485;SDS011;18935;52.236;21.134;2022-10-17T08:55:50;29.65;;;18.83;;
32485;SDS011;18935;52.236;21.134;2022-10-17T09:03:39;27.13;;;19.02;;
32485;SDS011;18935;52.236;21.134;2022-10-17T09:08:48;33.92;;;18.17;;
32485;SDS011;18935;52.236;21.134;2022-10-17T09:11:32;24.55;;;17.20;;
32485;SDS011;18935;52.236;21.134;2022-10-17T09:16:53;31.40;;;18.08;;
32485;SDS011;18935;52.236;21.134;2022-10-17T09:19:36;26.58;;;18.55;;
32485;SDS011;18935;52.236;21.134;2022-10-17T09:22:22;23.95;;;18.35;;
32485;SDS011;18935;52.236;21.134;2022-10-17T09:24:52;25.38;;;19.38;;
32485;SDS011;18935;52.236;21.134;2022-10-17T09:33:12;29.65;;;20.00;;
32485;SDS011;18935;52.236;21.134;2022-10-17T09:35:47;30.50;;;21.85;;
32485;SDS011;18935;52.236;21.134;2022-10-17T09:38:18;34.15;;;19.85;;
32485;SDS011;18935;52.236;21.134;2022-10-17T09:40:45;32.10;;;20.27;;
32485;SDS011;18935;52.236;21.134;2022-10-17T09:43:18;31.23;;;20.38;;
32485;SDS011;18935;52.236;21.134;2022-10-17T09:45:45;29.83;;;21.45;;
32485;SDS011;18935;52.236;21.134;2022-10-17T09:48:26;35.97;;;22.65;;
32485;SDS011;18935;52.236;21.134;2022-10-17T09:50:58;26.13;;;19.77;;
32485;SDS011;18935;52.236;21.134;2022-10-17T09:53:25;36.03;;;20.17;;
32485;SDS011;18935;52.236;21.134;2022-10-17T09:55:58;36.60;;;19.85;;
32485;SDS011;18935;52.236;21.134;2022-10-17T09:58:45;34.87;;;21.67;;
32485;SDS011;18935;52.236;21.134;2022-10-17T10:01:25;27.80;;;19.25;;
32485;SDS011;18935;52.236;21.134;2022-10-17T10:04:12;26.95;;;19.52;;
32485;SDS011;18935;52.236;21.134;2022-10-17T10:06:39;29.13;;;19.60;;
32485;SDS011;18935;52.236;21.134;2022-10-17T10:09:05;25.30;;;18.08;;
32485;SDS011;18935;52.236;21.134;2022-10-17T10:11:49;25.05;;;19.33;;
32485;SDS011;18935;52.236;21.134;2022-10-17T10:14:31;27.95;;;18.58;;
32485;SDS011;18935;52.236;21.134;2022-10-17T10:17:01;27.65;;;18.02;;
32485;SDS011;18935;52.236;21.134;2022-10-17T10:21:57;23.05;;;16.95;;
32485;SDS011;18935;52.236;21.134;2022-10-17T10:24:24;26.40;;;17.20;;
32485;SDS011;18935;52.236;21.134;2022-10-17T10:26:51;27.08;;;17.27;;
32485;SDS011;18935;52.236;21.134;2022-10-17T10:29:23;26.38;;;16.98;;
32485;SDS011;18935;52.236;21.134;2022-10-17T10:32:09;22.67;;;16.25;;
32485;SDS011;18935;52.236;21.134;2022-10-17T10:35:30;24.45;;;16.70;;
32485;SDS011;18935;52.236;21.134;2022-10-17T10:37:29;25.95;;;16.17;;
32485;SDS011;18935;52.236;21.134;2022-10-17T10:40:15;29.90;;;16.75;;
32485;SDS011;18935;52.236;21.134;2022-10-17T10:42:45;27.15;;;17.75;;
32485;SDS011;18935;52.236;21.134;2022-10-17T10:47:57;22.02;;;16.02;;
32485;SDS011;18935;52.236;21.134;2022-10-17T10:50:26;28.30;;;16.00;;
32485;SDS011;18935;52.236;21.134;2022-10-17T10:53:07;23.40;;;16.05;;
32485;SDS011;18935;52.236;21.134;2022-10-17T10:55:46;24.10;;;16.83;;
32485;SDS011;18935;52.236;21.134;2022-10-17T10:58:22;24.08;;;16.27;;
32485;SDS011;18935;52.236;21.134;2022-10-17T11:00:56;22.67;;;16.00;;
32485;SDS011;18935;52.236;21.134;2022-10-17T11:03:28;24.17;;;17.13;;
32485;SDS011;18935;52.236;21.134;2022-10-17T11:06:02;28.33;;;16.02;;
32485;SDS011;18935;52.236;21.134;2022-10-17T11:11:27;22.80;;;14.98;;
32485;SDS011;18935;52.236;21.134;2022-10-17T11:14:01;22.83;;;14.45;;
32485;SDS011;18935;52.236;21.134;2022-10-17T11:16:38;23.08;;;15.65;;
32485;SDS011;18935;52.236;21.134;2022-10-17T11:19:17;22.35;;;15.30;;
32485;SDS011;18935;52.236;21.134;2022-10-17T11:22:04;23.58;;;15.15;;
32485;SDS011;18935;52.236;21.134;2022-10-17T11:24:38;20.65;;;14.98;;
32485;SDS011;18935;52.236;21.134;2022-10-17T11:27:07;22.02;;;14.77;;
32485;SDS011;18935;52.236;21.134;2022-10-17T11:29:34;24.75;;;14.82;;
32485;SDS011;18935;52.236;21.134;2022-10-17T11:32:07;18.17;;;14.48;;
32485;SDS011;18935;52.236;21.134;2022-10-17T11:34:47;20.40;;;15.15;;
32485;SDS011;18935;52.236;21.134;2022-10-17T11:37:19;22.95;;;14.52;;
32485;SDS011;18935;52.236;21.134;2022-10-17T11:39:53;21.40;;;14.93;;
32485;SDS011;18935;52.236;21.134;2022-10-17T11:42:24;23.35;;;14.82;;
32485;SDS011;18935;52.236;21.134;2022-10-17T11:45:02;18.75;;;14.00;;
32485;SDS011;18935;52.236;21.134;2022-10-17T11:47:45;20.15;;;14.35;;
32485;SDS011;18935;52.236;21.134;2022-10-17T11:55:24;21.10;;;14.43;;
32485;SDS011;18935;52.236;21.134;2022-10-17T12:00:39;19.35;;;14.75;;
32485;SDS011;18935;52.236;21.134;2022-10-17T12:03:39;25.30;;;15.05;;
32485;SDS011;18935;52.236;21.134;2022-10-17T12:06:13;20.40;;;14.27;;
32485;SDS011;18935;52.236;21.134;2022-10-17T12:09:10;20.10;;;14.23;;
32485;SDS011;18935;52.236;21.134;2022-10-17T12:14:39;21.63;;;14.15;;
32485;SDS011;18935;52.236;21.134;2022-10-17T12:25:19;21.08;;;14.23;;
32485;SDS011;18935;52.236;21.134;2022-10-17T12:27:46;20.15;;;14.38;;
32485;SDS011;18935;52.236;21.134;2022-10-17T12:30:21;21.10;;;15.02;;
32485;SDS011;18935;52.236;21.134;2022-10-17T12:32:57;20.10;;;14.20;;
32485;SDS011;18935;52.236;21.134;2022-10-17T12:35:23;19.92;;;14.50;;
32485;SDS011;18935;52.236;21.134;2022-10-17T12:43:01;25.27;;;15.20;;
32485;SDS011;18935;52.236;21.134;2022-10-17T12:45:51;23.38;;;14.77;;
32485;SDS011;18935;52.236;21.134;2022-10-17T12:54:18;22.10;;;14.43;;
32485;SDS011;18935;52.236;21.134;2022-10-17T12:56:46;21.40;;;14.07;;
32485;SDS011;18935;52.236;21.134;2022-10-17T12:59:19;22.67;;;13.98;;
32485;SDS011;18935;52.236;21.134;2022-10-17T13:01:49;21.98;;;14.88;;
32485;SDS011;18935;52.236;21.134;2022-10-17T13:04:17;20.73;;;13.70;;
32485;SDS011;18935;52.236;21.134;2022-10-17T13:06:44;22.33;;;13.65;;
32485;SDS011;18935;52.236;21.134;2022-10-17T13:09:31;21.33;;;13.97;;
32485;SDS011;18935;52.236;21.134;2022-10-17T13:12:01;24.15;;;14.50;;
32485;SDS011;18935;52.236;21.134;2022-10-17T13:14:28;26.13;;;14.13;;
32485;SDS011;18935;52.236;21.134;2022-10-17T13:16:57;25.45;;;14.80;;
32485;SDS011;18935;52.236;21.134;2022-10-17T13:19:28;22.92;;;14.50;;
32485;SDS011;18935;52.236;21.134;2022-10-17T13:21:56;27.98;;;14.43;;
32485;SDS011;18935;52.236;21.134;2022-10-17T13:24:33;18.13;;;14.05;;
32485;SDS011;18935;52.236;21.134;2022-10-17T13:27:00;20.92;;;14.32;;
32485;SDS011;18935;52.236;21.134;2022-10-17T13:29:27;20.08;;;14.60;;
32485;SDS011;18935;52.236;21.134;2022-10-17T13:32:00;19.00;;;13.70;;
32485;SDS011;18935;52.236;21.134;2022-10-17T13:34:29;21.75;;;15.13;;
32485;SDS011;18935;52.236;21.134;2022-10-17T13:36:59;31.13;;;14.65;;
32485;SDS011;18935;52.236;21.134;2022-10-17T13:39:28;20.95;;;15.73;;
32485;SDS011;18935;52.236;21.134;2022-10-17T13:41:59;27.50;;;15.30;;
32485;SDS011;18935;52.236;21.134;2022-10-17T13:44:26;21.38;;;14.93;;
32485;SDS011;18935;52.236;21.134;2022-10-17T13:46:56;22.30;;;14.13;;
32485;SDS011;18935;52.236;21.134;2022-10-17T13:49:35;21.27;;;16.42;;
32485;SDS011;18935;52.236;21.134;2022-10-17T13:52:19;19.77;;;14.00;;
32485;SDS011;18935;52.236;21.134;2022-10-17T13:54:48;27.60;;;15.63;;
32485;SDS011;18935;52.236;21.134;2022-10-17T13:57:24;26.38;;;14.65;;
32485;SDS011;18935;52.236;21.134;2022-10-17T13:59:59;22.42;;;14.73;;
32485;SDS011;18935;52.236;21.134;2022-10-17T14:02:31;30.40;;;15.18;;
32485;SDS011;18935;52.236;21.134;2022-10-17T14:04:59;21.50;;;14.90;;
32485;SDS011;18935;52.236;21.134;2022-10-17T14:07:25;20.48;;;14.70;;
32485;SDS011;18935;52.236;21.134;2022-10-17T14:09:59;20.55;;;15.73;;
32485;SDS011;18935;52.236;21.134;2022-10-17T14:12:27;25.27;;;15.40;;
32485;SDS011;18935;52.236;21.134;2022-10-17T14:14:52;26.92;;;16.10;;
32485;SDS011;18935;52.236;21.134;2022-10-17T14:17:25;21.05;;;14.52;;
32485;SDS011;18935;52.236;21.134;2022-10-17T14:19:54;21.05;;;14.15;;
32485;SDS011;18935;52.236;21.134;2022-10-17T14:22:28;28.25;;;15.88;;
32485;SDS011;18935;52.236;21.134;2022-10-17T14:24:58;21.08;;;15.93;;
32485;SDS011;18935;52.236;21.134;2022-10-17T14:27:31;24.17;;;15.45;;
32485;SDS011;18935;52.236;21.134;2022-10-17T14:30:05;23.50;;;15.52;;
32485;SDS011;18935;52.236;21.134;2022-10-17T14:32:55;27.30;;;15.73;;
32485;SDS011;18935;52.236;21.134;2022-10-17T14:35:25;24.60;;;16.13;;
32485;SDS011;18935;52.236;21.134;2022-10-17T14:37:51;21.75;;;15.82;;
32485;SDS011;18935;52.236;21.134;2022-10-17T14:40:22;25.92;;;16.90;;
32485;SDS011;18935;52.236;21.134;2022-10-17T14:42:50;27.75;;;15.68;;
32485;SDS011;18935;52.236;21.134;2022-10-17T14:45:22;28.48;;;16.83;;
32485;SDS011;18935;52.236;21.134;2022-10-17T14:47:54;25.50;;;16.25;;
32485;SDS011;18935;52.236;21.134;2022-10-17T14:50:25;27.70;;;15.43;;
32485;SDS011;18935;52.236;21.134;2022-10-17T14:55:37;28.67;;;16.88;;
32485;SDS011;18935;52.236;21.134;2022-10-17T14:58:27;29.15;;;15.18;;
32485;SDS011;18935;52.236;21.134;2022-10-17T15:00:55;47.22;;;16.00;;
32485;SDS011;18935;52.236;21.134;2022-10-17T15:03:21;26.08;;;15.88;;
32485;SDS011;18935;52.236;21.134;2022-10-17T15:05:47;25.45;;;17.45;;
32485;SDS011;18935;52.236;21.134;2022-10-17T15:08:14;27.48;;;17.42;;
32485;SDS011;18935;52.236;21.134;2022-10-17T15:10:41;30.75;;;17.00;;
32485;SDS011;18935;52.236;21.134;2022-10-17T15:13:08;28.88;;;17.20;;
32485;SDS011;18935;52.236;21.134;2022-10-17T15:15:34;37.08;;;23.50;;
32485;SDS011;18935;52.236;21.134;2022-10-17T15:18:19;35.13;;;18.42;;
32485;SDS011;18935;52.236;21.134;2022-10-17T15:20:45;30.33;;;17.90;;
32485;SDS011;18935;52.236;21.134;2022-10-17T15:23:10;35.10;;;19.70;;
32485;SDS011;18935;52.236;21.134;2022-10-17T15:25:35;27.17;;;17.53;;
32485;SDS011;18935;52.236;21.134;2022-10-17T15:28:01;51.40;;;26.92;;
32485;SDS011;18935;52.236;21.134;2022-10-17T15:30:27;52.80;;;29.37;;
32485;SDS011;18935;52.236;21.134;2022-10-17T15:32:55;43.72;;;24.30;;
32485;SDS011;18935;52.236;21.134;2022-10-17T15:35:21;38.72;;;24.52;;
32485;SDS011;18935;52.236;21.134;2022-10-17T15:37:47;42.35;;;21.02;;
32485;SDS011;18935;52.236;21.134;2022-10-17T15:40:20;34.88;;;22.20;;
32485;SDS011;18935;52.236;21.134;2022-10-17T15:42:49;35.70;;;21.15;;
32485;SDS011;18935;52.236;21.134;2022-10-17T15:45:16;34.53;;;21.90;;
32485;SDS011;18935;52.236;21.134;2022-10-17T15:47:43;39.28;;;20.02;;
32485;SDS011;18935;52.236;21.134;2022-10-17T15:50:15;33.25;;;20.15;;